sensor_id;sensor_type;location;lat;lon;timestamp;P1;durP1;ratioP1;P2;durP2;ratioP2
974;SDS011;6115;49.296;10.602;2023-04-28T00:00:15;12.23;;;8.33;;
974;SDS011;6115;49.296;10.602;2023-04-28T00:05:16;12.87;;;8.77;;
974;SDS011;6115;49.296;10.602;2023-04-28T00:10:17;11.43;;;7.80;;
974;SDS011;6115;49.296;10.602;2023-04-28T00:15:17;11.57;;;8.93;;
974;SDS011;6115;49.296;10.602;2023-04-28T00:20:18;14.80;;;8.20;;
974;SDS011;6115;49.296;10.602;2023-04-28T00:25:19;10.50;;;8.67;;
974;SDS011;6115;49.296;10.602;2023-04-28T00:30:19;10.40;;;8.67;;
974;SDS011;6115;49.296;10.602;2023-04-28T00:35:20;12.57;;;9.27;;
974;SDS011;6115;49.296;10.602;2023-04-28T00:40:21;14.07;;;9.17;;
974;SDS011;6115;49.296;10.602;2023-04-28T00:45:21;11.83;;;8.43;;
974;SDS011;6115;49.296;10.602;2023-04-28T00:50:23;12.83;;;9.10;;
974;SDS011;6115;49.296;10.602;2023-04-28T00:55:24;10.47;;;8.93;;
974;SDS011;6115;49.296;10.602;2023-04-28T01:00:26;15.50;;;8.40;;
974;SDS011;6115;49.296;10.602;2023-04-28T01:05:27;10.30;;;8.10;;
974;SDS011;6115;49.296;10.602;2023-04-28T01:10:29;22.80;;;8.20;;
974;SDS011;6115;49.296;10.602;2023-04-28T01:15:29;12.23;;;8.37;;
974;SDS011;6115;49.296;10.602;2023-04-28T01:20:30;12.37;;;8.37;;
974;SDS011;6115;49.296;10.602;2023-04-28T01:25:30;12.53;;;9.40;;
974;SDS011;6115;49.296;10.602;2023-04-28T01:30:31;11.23;;;9.47;;
974;SDS011;6115;49.296;10.602;2023-04-28T01:35:31;13.63;;;9.20;;
974;SDS011;6115;49.296;10.602;2023-04-28T01:40:32;13.13;;;9.37;;
974;SDS011;6115;49.296;10.602;2023-04-28T01:45:33;11.57;;;8.70;;
974;SDS011;6115;49.296;10.602;2023-04-28T01:50:33;11.30;;;9.33;;
974;SDS011;6115;49.296;10.602;2023-04-28T01:55:34;11.03;;;9.50;;
974;SDS011;6115;49.296;10.602;2023-04-28T02:00:34;11.97;;;10.57;;
974;SDS011;6115;49.296;10.602;2023-04-28T02:05:35;12.67;;;9.27;;
974;SDS011;6115;49.296;10.602;2023-04-28T02:10:36;9.07;;;8.13;;
974;SDS011;6115;49.296;10.602;2023-04-28T02:15:40;12.53;;;9.30;;
974;SDS011;6115;49.296;10.602;2023-04-28T02:20:41;11.13;;;8.57;;
974;SDS011;6115;49.296;10.602;2023-04-28T02:25:44;12.23;;;9.07;;
974;SDS011;6115;49.296;10.602;2023-04-28T02:30:44;15.20;;;8.60;;
974;SDS011;6115;49.296;10.602;2023-04-28T02:35:45;11.60;;;8.40;;
974;SDS011;6115;49.296;10.602;2023-04-28T02:40:45;12.20;;;8.37;;
974;SDS011;6115;49.296;10.602;2023-04-28T02:45:46;10.23;;;9.23;;
974;SDS011;6115;49.296;10.602;2023-04-28T02:50:46;13.20;;;9.30;;
974;SDS011;6115;49.296;10.602;2023-04-28T02:55:47;10.07;;;8.97;;
974;SDS011;6115;49.296;10.602;2023-04-28T03:00:48;11.20;;;8.70;;
974;SDS011;6115;49.296;10.602;2023-04-28T03:05:48;12.93;;;9.37;;
974;SDS011;6115;49.296;10.602;2023-04-28T03:10:49;11.67;;;9.67;;
974;SDS011;6115;49.296;10.602;2023-04-28T03:15:50;10.67;;;9.20;;
974;SDS011;6115;49.296;10.602;2023-04-28T03:20:51;12.97;;;8.80;;
974;SDS011;6115;49.296;10.602;2023-04-28T03:25:51;11.97;;;9.53;;
974;SDS011;6115;49.296;10.602;2023-04-28T03:30:52;10.87;;;8.43;;
974;SDS011;6115;49.296;10.602;2023-04-28T03:35:52;10.10;;;8.97;;
974;SDS011;6115;49.296;10.602;2023-04-28T03:41:00;15.83;;;10.30;;
974;SDS011;6115;49.296;10.602;2023-04-28T03:46:00;12.40;;;9.37;;
974;SDS011;6115;49.296;10.602;2023-04-28T03:51:01;9.67;;;8.60;;
974;SDS011;6115;49.296;10.602;2023-04-28T03:56:02;8.90;;;8.00;;
974;SDS011;6115;49.296;10.602;2023-04-28T04:01:04;12.00;;;8.10;;
974;SDS011;6115;49.296;10.602;2023-04-28T04:06:05;8.57;;;7.30;;
974;SDS011;6115;49.296;10.602;2023-04-28T04:11:05;13.17;;;8.13;;
974;SDS011;6115;49.296;10.602;2023-04-28T04:16:06;11.73;;;8.93;;
974;SDS011;6115;49.296;10.602;2023-04-28T04:21:07;10.27;;;8.90;;
974;SDS011;6115;49.296;10.602;2023-04-28T04:26:07;10.77;;;9.63;;
974;SDS011;6115;49.296;10.602;2023-04-28T04:31:08;12.10;;;9.40;;
974;SDS011;6115;49.296;10.602;2023-04-28T04:36:09;13.07;;;9.17;;
974;SDS011;6115;49.296;10.602;2023-04-28T04:41:09;10.93;;;7.40;;
974;SDS011;6115;49.296;10.602;2023-04-28T04:46:10;10.80;;;7.53;;
974;SDS011;6115;49.296;10.602;2023-04-28T04:51:10;11.40;;;7.00;;
974;SDS011;6115;49.296;10.602;2023-04-28T04:56:11;12.33;;;7.80;;
974;SDS011;6115;49.296;10.602;2023-04-28T05:01:11;9.97;;;7.27;;
974;SDS011;6115;49.296;10.602;2023-04-28T05:06:13;10.27;;;7.50;;
974;SDS011;6115;49.296;10.602;2023-04-28T05:11:14;9.70;;;8.13;;
974;SDS011;6115;49.296;10.602;2023-04-28T05:16:15;10.47;;;8.60;;
974;SDS011;6115;49.296;10.602;2023-04-28T05:21:16;12.07;;;9.50;;
974;SDS011;6115;49.296;10.602;2023-04-28T05:26:17;11.90;;;9.10;;
974;SDS011;6115;49.296;10.602;2023-04-28T05:31:17;13.70;;;9.17;;
974;SDS011;6115;49.296;10.602;2023-04-28T05:36:18;10.10;;;8.50;;
974;SDS011;6115;49.296;10.602;2023-04-28T05:41:19;9.17;;;8.13;;
974;SDS011;6115;49.296;10.602;2023-04-28T05:46:19;12.70;;;9.03;;
974;SDS011;6115;49.296;10.602;2023-04-28T05:51:20;9.77;;;7.67;;
974;SDS011;6115;49.296;10.602;2023-04-28T05:56:21;7.87;;;6.60;;
974;SDS011;6115;49.296;10.602;2023-04-28T06:01:21;9.50;;;7.90;;
974;SDS011;6115;49.296;10.602;2023-04-28T06:06:22;8.20;;;7.40;;
974;SDS011;6115;49.296;10.602;2023-04-28T06:11:23;12.03;;;7.33;;
974;SDS011;6115;49.296;10.602;2023-04-28T06:16:23;14.03;;;8.57;;
974;SDS011;6115;49.296;10.602;2023-04-28T06:21:24;11.63;;;8.77;;
974;SDS011;6115;49.296;10.602;2023-04-28T06:26:26;10.00;;;8.37;;
974;SDS011;6115;49.296;10.602;2023-04-28T06:31:27;9.07;;;8.00;;
974;SDS011;6115;49.296;10.602;2023-04-28T06:36:27;9.80;;;7.83;;
974;SDS011;6115;49.296;10.602;2023-04-28T06:41:28;8.40;;;7.43;;
974;SDS011;6115;49.296;10.602;2023-04-28T06:46:29;10.33;;;7.37;;
974;SDS011;6115;49.296;10.602;2023-04-28T06:51:30;12.07;;;8.47;;
974;SDS011;6115;49.296;10.602;2023-04-28T06:56:34;8.30;;;6.47;;
974;SDS011;6115;49.296;10.602;2023-04-28T07:01:35;11.50;;;7.20;;
974;SDS011;6115;49.296;10.602;2023-04-28T07:06:35;10.17;;;7.20;;
974;SDS011;6115;49.296;10.602;2023-04-28T07:11:36;13.03;;;7.57;;
974;SDS011;6115;49.296;10.602;2023-04-28T07:16:36;9.90;;;7.97;;
974;SDS011;6115;49.296;10.602;2023-04-28T07:21:37;7.90;;;7.10;;
974;SDS011;6115;49.296;10.602;2023-04-28T07:26:38;11.20;;;7.40;;
974;SDS011;6115;49.296;10.602;2023-04-28T07:31:39;8.77;;;7.87;;
974;SDS011;6115;49.296;10.602;2023-04-28T07:36:40;9.47;;;8.10;;
974;SDS011;6115;49.296;10.602;2023-04-28T07:41:40;9.70;;;7.40;;
974;SDS011;6115;49.296;10.602;2023-04-28T07:46:41;8.50;;;6.93;;
974;SDS011;6115;49.296;10.602;2023-04-28T07:51:42;10.00;;;8.53;;
974;SDS011;6115;49.296;10.602;2023-04-28T07:56:43;12.40;;;7.97;;
974;SDS011;6115;49.296;10.602;2023-04-28T08:01:44;12.37;;;8.47;;
974;SDS011;6115;49.296;10.602;2023-04-28T08:06:45;11.13;;;9.00;;
974;SDS011;6115;49.296;10.602;2023-04-28T08:11:45;10.13;;;9.00;;
974;SDS011;6115;49.296;10.602;2023-04-28T08:16:46;12.33;;;8.17;;
974;SDS011;6115;49.296;10.602;2023-04-28T08:21:47;10.03;;;9.00;;
974;SDS011;6115;49.296;10.602;2023-04-28T08:26:47;17.10;;;10.90;;
974;SDS011;6115;49.296;10.602;2023-04-28T08:31:48;12.23;;;9.50;;
974;SDS011;6115;49.296;10.602;2023-04-28T08:36:49;11.50;;;9.77;;
974;SDS011;6115;49.296;10.602;2023-04-28T08:41:51;10.80;;;9.70;;
974;SDS011;6115;49.296;10.602;2023-04-28T08:46:53;13.23;;;9.77;;
974;SDS011;6115;49.296;10.602;2023-04-28T08:51:58;11.00;;;9.73;;
974;SDS011;6115;49.296;10.602;2023-04-28T08:56:59;10.50;;;9.40;;
974;SDS011;6115;49.296;10.602;2023-04-28T09:02:01;13.80;;;10.97;;
974;SDS011;6115;49.296;10.602;2023-04-28T09:07:01;11.60;;;9.97;;
974;SDS011;6115;49.296;10.602;2023-04-28T09:12:02;15.40;;;9.90;;
974;SDS011;6115;49.296;10.602;2023-04-28T09:17:10;12.47;;;10.60;;
974;SDS011;6115;49.296;10.602;2023-04-28T09:22:12;14.17;;;11.20;;
974;SDS011;6115;49.296;10.602;2023-04-28T09:27:12;13.67;;;11.57;;
974;SDS011;6115;49.296;10.602;2023-04-28T09:32:18;14.03;;;12.20;;
974;SDS011;6115;49.296;10.602;2023-04-28T09:37:20;14.10;;;11.60;;
974;SDS011;6115;49.296;10.602;2023-04-28T09:47:37;16.43;;;11.30;;
974;SDS011;6115;49.296;10.602;2023-04-28T09:52:42;14.43;;;11.50;;
974;SDS011;6115;49.296;10.602;2023-04-28T09:57:44;14.67;;;13.13;;
974;SDS011;6115;49.296;10.602;2023-04-28T10:02:47;13.30;;;11.90;;
974;SDS011;6115;49.296;10.602;2023-04-28T10:07:50;12.73;;;11.50;;
974;SDS011;6115;49.296;10.602;2023-04-28T10:12:53;15.80;;;11.70;;
974;SDS011;6115;49.296;10.602;2023-04-28T10:17:54;13.83;;;12.10;;
974;SDS011;6115;49.296;10.602;2023-04-28T10:22:58;12.13;;;10.90;;
974;SDS011;6115;49.296;10.602;2023-04-28T10:28:19;12.47;;;11.20;;
974;SDS011;6115;49.296;10.602;2023-04-28T10:33:23;13.90;;;11.90;;
974;SDS011;6115;49.296;10.602;2023-04-28T10:38:25;13.00;;;11.70;;
974;SDS011;6115;49.296;10.602;2023-04-28T10:58:48;12.87;;;11.53;;
974;SDS011;6115;49.296;10.602;2023-04-28T11:04:05;13.90;;;12.40;;
974;SDS011;6115;49.296;10.602;2023-04-28T11:19:17;11.37;;;10.27;;
974;SDS011;6115;49.296;10.602;2023-04-28T11:24:20;10.50;;;9.50;;
974;SDS011;6115;49.296;10.602;2023-04-28T11:29:37;13.30;;;11.57;;
974;SDS011;6115;49.296;10.602;2023-04-28T11:34:39;9.73;;;8.83;;
974;SDS011;6115;49.296;10.602;2023-04-28T11:39:41;7.20;;;6.50;;
974;SDS011;6115;49.296;10.602;2023-04-28T11:44:48;6.13;;;5.53;;
974;SDS011;6115;49.296;10.602;2023-04-28T11:49:55;6.77;;;6.17;;
974;SDS011;6115;49.296;10.602;2023-04-28T11:54:57;6.93;;;5.60;;
974;SDS011;6115;49.296;10.602;2023-04-28T12:00:12;5.93;;;5.43;;
974;SDS011;6115;49.296;10.602;2023-04-28T12:05:18;6.07;;;5.50;;
974;SDS011;6115;49.296;10.602;2023-04-28T12:10:21;6.70;;;4.83;;
974;SDS011;6115;49.296;10.602;2023-04-28T12:15:21;6.43;;;5.87;;
974;SDS011;6115;49.296;10.602;2023-04-28T12:20:33;6.57;;;5.97;;
974;SDS011;6115;49.296;10.602;2023-04-28T12:25:44;6.03;;;5.43;;
974;SDS011;6115;49.296;10.602;2023-04-28T12:30:46;6.13;;;5.60;;
974;SDS011;6115;49.296;10.602;2023-04-28T12:35:47;6.47;;;5.87;;
974;SDS011;6115;49.296;10.602;2023-04-28T12:40:48;6.47;;;5.87;;
974;SDS011;6115;49.296;10.602;2023-04-28T12:45:49;5.57;;;5.00;;
974;SDS011;6115;49.296;10.602;2023-04-28T12:50:51;6.00;;;5.50;;
974;SDS011;6115;49.296;10.602;2023-04-28T12:55:52;5.60;;;5.10;;
974;SDS011;6115;49.296;10.602;2023-04-28T13:00:53;3.30;;;3.00;;
974;SDS011;6115;49.296;10.602;2023-04-28T13:05:53;3.80;;;3.50;;
974;SDS011;6115;49.296;10.602;2023-04-28T13:10:54;3.10;;;2.80;;
974;SDS011;6115;49.296;10.602;2023-04-28T13:15:54;2.77;;;2.57;;
974;SDS011;6115;49.296;10.602;2023-04-28T13:20:55;3.03;;;2.73;;
974;SDS011;6115;49.296;10.602;2023-04-28T13:25:56;3.00;;;2.80;;
974;SDS011;6115;49.296;10.602;2023-04-28T13:30:56;3.00;;;2.80;;
974;SDS011;6115;49.296;10.602;2023-04-28T13:35:57;3.13;;;2.93;;
974;SDS011;6115;49.296;10.602;2023-04-28T13:40:58;2.43;;;2.23;;
974;SDS011;6115;49.296;10.602;2023-04-28T13:45:59;3.03;;;2.73;;
974;SDS011;6115;49.296;10.602;2023-04-28T13:51:01;2.00;;;1.60;;
974;SDS011;6115;49.296;10.602;2023-04-28T13:56:02;2.63;;;2.43;;
974;SDS011;6115;49.296;10.602;2023-04-28T14:01:04;2.80;;;1.83;;
974;SDS011;6115;49.296;10.602;2023-04-28T14:06:05;3.73;;;3.40;;
974;SDS011;6115;49.296;10.602;2023-04-28T14:11:07;3.30;;;2.23;;
974;SDS011;6115;49.296;10.602;2023-04-28T14:16:08;2.57;;;2.37;;
974;SDS011;6115;49.296;10.602;2023-04-28T14:21:09;3.30;;;2.40;;
974;SDS011;6115;49.296;10.602;2023-04-28T14:26:10;3.50;;;3.20;;
974;SDS011;6115;49.296;10.602;2023-04-28T14:31:10;3.70;;;3.00;;
974;SDS011;6115;49.296;10.602;2023-04-28T14:36:11;4.40;;;3.83;;
974;SDS011;6115;49.296;10.602;2023-04-28T14:41:12;3.37;;;3.07;;
974;SDS011;6115;49.296;10.602;2023-04-28T14:46:12;4.00;;;3.47;;
974;SDS011;6115;49.296;10.602;2023-04-28T14:51:13;3.73;;;3.43;;
974;SDS011;6115;49.296;10.602;2023-04-28T14:56:14;4.57;;;3.70;;
974;SDS011;6115;49.296;10.602;2023-04-28T15:01:15;5.33;;;4.00;;
974;SDS011;6115;49.296;10.602;2023-04-28T15:06:17;4.57;;;4.10;;
974;SDS011;6115;49.296;10.602;2023-04-28T15:11:18;4.60;;;4.20;;
974;SDS011;6115;49.296;10.602;2023-04-28T15:16:18;5.27;;;4.33;;
974;SDS011;6115;49.296;10.602;2023-04-28T15:21:19;5.13;;;4.63;;
974;SDS011;6115;49.296;10.602;2023-04-28T15:26:20;6.60;;;5.30;;
974;SDS011;6115;49.296;10.602;2023-04-28T15:31:22;5.70;;;5.20;;
974;SDS011;6115;49.296;10.602;2023-04-28T15:36:24;6.80;;;5.20;;
974;SDS011;6115;49.296;10.602;2023-04-28T15:41:25;3.30;;;2.70;;
974;SDS011;6115;49.296;10.602;2023-04-28T15:46:26;3.40;;;3.10;;
974;SDS011;6115;49.296;10.602;2023-04-28T15:51:29;3.63;;;3.33;;
974;SDS011;6115;49.296;10.602;2023-04-28T15:56:30;3.30;;;3.00;;
974;SDS011;6115;49.296;10.602;2023-04-28T16:01:31;2.00;;;1.80;;
974;SDS011;6115;49.296;10.602;2023-04-28T16:06:32;6.00;;;4.30;;
974;SDS011;6115;49.296;10.602;2023-04-28T16:11:32;7.30;;;3.93;;
974;SDS011;6115;49.296;10.602;2023-04-28T16:16:34;2.27;;;1.20;;
974;SDS011;6115;49.296;10.602;2023-04-28T16:21:34;1.73;;;1.63;;
974;SDS011;6115;49.296;10.602;2023-04-28T16:26:35;1.80;;;1.57;;
974;SDS011;6115;49.296;10.602;2023-04-28T16:31:36;2.43;;;2.00;;
974;SDS011;6115;49.296;10.602;2023-04-28T16:41:47;2.00;;;1.30;;
974;SDS011;6115;49.296;10.602;2023-04-28T16:46:47;2.13;;;1.23;;
974;SDS011;6115;49.296;10.602;2023-04-28T16:52:01;1.80;;;1.10;;
974;SDS011;6115;49.296;10.602;2023-04-28T16:57:05;3.33;;;1.40;;
974;SDS011;6115;49.296;10.602;2023-04-28T17:02:13;3.30;;;1.97;;
974;SDS011;6115;49.296;10.602;2023-04-28T17:07:14;3.90;;;2.60;;
974;SDS011;6115;49.296;10.602;2023-04-28T17:12:14;4.10;;;2.60;;
974;SDS011;6115;49.296;10.602;2023-04-28T17:17:15;2.30;;;1.47;;
974;SDS011;6115;49.296;10.602;2023-04-28T17:22:17;3.20;;;1.83;;
974;SDS011;6115;49.296;10.602;2023-04-28T17:27:24;4.00;;;2.37;;
974;SDS011;6115;49.296;10.602;2023-04-28T17:32:25;3.63;;;3.30;;
974;SDS011;6115;49.296;10.602;2023-04-28T17:37:32;4.10;;;3.40;;
974;SDS011;6115;49.296;10.602;2023-04-28T17:42:33;4.57;;;3.30;;
974;SDS011;6115;49.296;10.602;2023-04-28T17:47:35;3.70;;;3.40;;
974;SDS011;6115;49.296;10.602;2023-04-28T17:52:36;3.40;;;2.37;;
974;SDS011;6115;49.296;10.602;2023-04-28T17:57:37;4.00;;;2.30;;
974;SDS011;6115;49.296;10.602;2023-04-28T18:02:38;2.17;;;1.53;;
974;SDS011;6115;49.296;10.602;2023-04-28T18:07:38;2.10;;;1.50;;
974;SDS011;6115;49.296;10.602;2023-04-28T18:12:39;1.80;;;1.60;;
974;SDS011;6115;49.296;10.602;2023-04-28T18:17:39;5.00;;;2.50;;
974;SDS011;6115;49.296;10.602;2023-04-28T18:22:40;4.20;;;3.30;;
974;SDS011;6115;49.296;10.602;2023-04-28T18:27:41;3.50;;;2.23;;
974;SDS011;6115;49.296;10.602;2023-04-28T18:32:42;2.30;;;1.87;;
974;SDS011;6115;49.296;10.602;2023-04-28T18:37:45;2.50;;;2.20;;
974;SDS011;6115;49.296;10.602;2023-04-28T18:42:45;2.90;;;2.00;;
974;SDS011;6115;49.296;10.602;2023-04-28T18:47:46;7.83;;;7.07;;
974;SDS011;6115;49.296;10.602;2023-04-28T18:52:47;22.50;;;16.60;;
974;SDS011;6115;49.296;10.602;2023-04-28T18:57:48;29.40;;;22.77;;
974;SDS011;6115;49.296;10.602;2023-04-28T19:02:49;20.00;;;16.40;;
974;SDS011;6115;49.296;10.602;2023-04-28T19:07:51;3.33;;;2.60;;
974;SDS011;6115;49.296;10.602;2023-04-28T19:12:52;2.80;;;2.33;;
974;SDS011;6115;49.296;10.602;2023-04-28T19:17:54;5.20;;;3.17;;
974;SDS011;6115;49.296;10.602;2023-04-28T19:22:55;4.77;;;3.20;;
974;SDS011;6115;49.296;10.602;2023-04-28T19:27:57;3.77;;;3.33;;
974;SDS011;6115;49.296;10.602;2023-04-28T19:32:57;8.20;;;7.00;;
974;SDS011;6115;49.296;10.602;2023-04-28T19:38:00;10.97;;;8.70;;
974;SDS011;6115;49.296;10.602;2023-04-28T19:43:01;8.43;;;6.37;;
974;SDS011;6115;49.296;10.602;2023-04-28T19:48:01;5.67;;;5.17;;
974;SDS011;6115;49.296;10.602;2023-04-28T19:53:02;4.43;;;4.03;;
974;SDS011;6115;49.296;10.602;2023-04-28T19:58:03;4.83;;;3.40;;
974;SDS011;6115;49.296;10.602;2023-04-28T20:03:05;5.30;;;4.80;;
974;SDS011;6115;49.296;10.602;2023-04-28T20:08:05;6.10;;;5.50;;
974;SDS011;6115;49.296;10.602;2023-04-28T20:13:07;10.77;;;5.40;;
974;SDS011;6115;49.296;10.602;2023-04-28T20:18:07;6.83;;;5.37;;
974;SDS011;6115;49.296;10.602;2023-04-28T20:23:09;5.03;;;4.30;;
974;SDS011;6115;49.296;10.602;2023-04-28T20:28:09;4.17;;;3.70;;
974;SDS011;6115;49.296;10.602;2023-04-28T20:33:10;3.87;;;3.47;;
974;SDS011;6115;49.296;10.602;2023-04-28T20:38:10;4.93;;;3.43;;
974;SDS011;6115;49.296;10.602;2023-04-28T20:43:11;4.80;;;3.73;;
974;SDS011;6115;49.296;10.602;2023-04-28T20:48:11;5.27;;;3.43;;
974;SDS011;6115;49.296;10.602;2023-04-28T20:53:12;3.53;;;3.23;;
974;SDS011;6115;49.296;10.602;2023-04-28T20:58:13;3.50;;;2.97;;
974;SDS011;6115;49.296;10.602;2023-04-28T21:03:13;2.80;;;2.60;;
974;SDS011;6115;49.296;10.602;2023-04-28T21:08:14;5.20;;;2.80;;
974;SDS011;6115;49.296;10.602;2023-04-28T21:13:15;4.40;;;2.70;;
974;SDS011;6115;49.296;10.602;2023-04-28T21:18:16;6.93;;;2.87;;
974;SDS011;6115;49.296;10.602;2023-04-28T21:23:16;3.70;;;3.00;;
974;SDS011;6115;49.296;10.602;2023-04-28T21:28:17;4.50;;;2.80;;
974;SDS011;6115;49.296;10.602;2023-04-28T21:33:17;3.20;;;2.87;;
974;SDS011;6115;49.296;10.602;2023-04-28T21:38:18;3.60;;;2.50;;
974;SDS011;6115;49.296;10.602;2023-04-28T21:43:18;3.10;;;2.80;;
974;SDS011;6115;49.296;10.602;2023-04-28T21:48:19;4.60;;;3.07;;
974;SDS011;6115;49.296;10.602;2023-04-28T21:53:20;4.60;;;2.90;;
974;SDS011;6115;49.296;10.602;2023-04-28T21:58:20;2.73;;;2.53;;
974;SDS011;6115;49.296;10.602;2023-04-28T22:03:22;3.20;;;2.80;;
974;SDS011;6115;49.296;10.602;2023-04-28T22:08:23;2.83;;;2.50;;
974;SDS011;6115;49.296;10.602;2023-04-28T22:13:23;3.77;;;2.90;;
974;SDS011;6115;49.296;10.602;2023-04-28T22:18:30;6.60;;;3.17;;
974;SDS011;6115;49.296;10.602;2023-04-28T22:23:31;5.90;;;5.23;;
974;SDS011;6115;49.296;10.602;2023-04-28T22:28:31;6.23;;;4.80;;
974;SDS011;6115;49.296;10.602;2023-04-28T22:33:34;5.17;;;4.67;;
974;SDS011;6115;49.296;10.602;2023-04-28T22:38:37;5.93;;;4.80;;
974;SDS011;6115;49.296;10.602;2023-04-28T22:43:38;4.70;;;3.97;;
974;SDS011;6115;49.296;10.602;2023-04-28T22:48:38;5.20;;;4.27;;
974;SDS011;6115;49.296;10.602;2023-04-28T22:53:39;4.90;;;4.40;;
974;SDS011;6115;49.296;10.602;2023-04-28T22:58:39;5.60;;;4.40;;
974;SDS011;6115;49.296;10.602;2023-04-28T23:03:40;4.97;;;4.47;;
974;SDS011;6115;49.296;10.602;2023-04-28T23:08:41;4.83;;;4.33;;
974;SDS011;6115;49.296;10.602;2023-04-28T23:13:41;5.53;;;4.70;;
974;SDS011;6115;49.296;10.602;2023-04-28T23:18:42;6.53;;;4.40;;
974;SDS011;6115;49.296;10.602;2023-04-28T23:23:44;7.00;;;4.63;;
974;SDS011;6115;49.296;10.602;2023-04-28T23:28:45;5.80;;;4.50;;
974;SDS011;6115;49.296;10.602;2023-04-28T23:33:47;7.63;;;4.33;;
974;SDS011;6115;49.296;10.602;2023-04-28T23:38:47;5.40;;;4.00;;
974;SDS011;6115;49.296;10.602;2023-04-28T23:43:48;5.83;;;4.43;;
974;SDS011;6115;49.296;10.602;2023-04-28T23:48:49;5.00;;;4.50;;
974;SDS011;6115;49.296;10.602;2023-04-28T23:53:49;6.50;;;4.40;;
974;SDS011;6115;49.296;10.602;2023-04-28T23:58:50;5.10;;;4.60;;
